createdAt,value
2023-03-14T00:00:17.293Z,2.08
2023-03-14T00:02:43.814Z,2.10
2023-03-14T00:05:10.825Z,3.42
2023-03-14T00:07:39.591Z,1.45
2023-03-14T00:10:09.319Z,3.42
2023-03-14T00:12:35.781Z,2.70
2023-03-14T00:15:04.300Z,3.55
2023-03-14T00:17:31.569Z,3.95
2023-03-14T00:19:57.955Z,3.53
2023-03-14T00:22:24.438Z,2.55
2023-03-14T00:24:51.372Z,4.97
2023-03-14T00:27:17.708Z,2.20
2023-03-14T00:29:44.806Z,4.28
2023-03-14T00:32:11.129Z,2.17
2023-03-14T00:34:38.842Z,3.20
2023-03-14T00:37:05.206Z,4.28
2023-03-14T00:39:31.618Z,2.88
2023-03-14T00:41:58.017Z,2.15
2023-03-14T00:44:24.503Z,3.42
2023-03-14T00:46:50.940Z,3.42
2023-03-14T00:49:17.381Z,4.35
2023-03-14T00:51:43.751Z,2.42
2023-03-14T00:54:10.203Z,4.05
2023-03-14T00:56:36.673Z,3.17
2023-03-14T00:59:03.099Z,1.42
2023-03-14T01:01:29.511Z,4.18
2023-03-14T01:03:56.434Z,3.58
2023-03-14T01:06:25.484Z,6.15
2023-03-14T01:08:52.337Z,6.53
2023-03-14T01:11:30.531Z,4.65
2023-03-14T01:13:57.471Z,7.18
2023-03-14T01:16:29.478Z,6.88
2023-03-14T01:18:56.077Z,5.78
2023-03-14T01:21:23.537Z,6.20
2023-03-14T01:23:50.576Z,6.28
2023-03-14T01:26:20.108Z,7.65
2023-03-14T01:28:47.608Z,5.75
2023-03-14T01:31:14.235Z,7.22
2023-03-14T01:33:41.267Z,8.40
2023-03-14T01:36:08.461Z,6.85
2023-03-14T01:38:36.391Z,4.72
2023-03-14T01:41:03.262Z,9.18
2023-03-14T01:43:30.402Z,4.30
2023-03-14T01:46:05.985Z,2.95
2023-03-14T01:48:34.740Z,5.53
2023-03-14T01:51:02.045Z,7.03
2023-03-14T01:53:28.919Z,5.90
2023-03-14T01:55:57.552Z,4.93
2023-03-14T01:58:28.016Z,7.35
2023-03-14T02:00:55.194Z,4.85
2023-03-14T02:03:23.416Z,4.88
2023-03-14T02:05:50.431Z,2.67
2023-03-14T02:08:20.460Z,6.72
2023-03-14T02:10:49.713Z,8.48
2023-03-14T02:13:18.367Z,3.92
2023-03-14T02:15:44.885Z,5.18
2023-03-14T02:18:11.423Z,5.10
2023-03-14T02:20:55.835Z,4.35
2023-03-14T02:26:05.047Z,6.25
2023-03-14T02:28:31.417Z,9.07
2023-03-14T02:30:57.816Z,7.43
2023-03-14T02:33:24.276Z,4.75
2023-03-14T02:35:57.291Z,3.85
2023-03-14T02:38:30.377Z,6.50
2023-03-14T02:40:56.779Z,5.15
2023-03-14T02:43:23.325Z,3.67
2023-03-14T02:45:50.855Z,8.10
2023-03-14T02:48:23.452Z,5.22
2023-03-14T02:50:52.238Z,4.82
2023-03-14T02:53:22.938Z,5.60
2023-03-14T02:55:49.626Z,7.15
2023-03-14T02:58:16.414Z,3.95
2023-03-14T03:00:43.575Z,6.72
2023-03-14T03:03:10.265Z,8.55
2023-03-14T03:05:36.801Z,3.67
2023-03-14T03:08:04.397Z,5.95
2023-03-14T03:10:31.143Z,4.20
2023-03-14T03:12:58.132Z,9.50
2023-03-14T03:15:25.150Z,5.25
2023-03-14T03:17:51.506Z,3.58
2023-03-14T03:20:18.515Z,3.97
2023-03-14T03:22:45.281Z,4.72
2023-03-14T03:25:11.662Z,7.35
2023-03-14T03:27:38.645Z,9.75
2023-03-14T03:30:06.867Z,9.30
2023-03-14T03:32:33.575Z,4.68
2023-03-14T03:35:00.050Z,6.32
2023-03-14T03:37:26.696Z,4.80
2023-03-14T03:39:53.056Z,6.78
2023-03-14T03:42:19.850Z,7.07
2023-03-14T03:44:46.422Z,7.20
2023-03-14T03:47:12.872Z,9.15
2023-03-14T03:49:39.252Z,5.07
2023-03-14T03:52:05.627Z,7.95
2023-03-14T03:54:31.992Z,6.25
2023-03-14T03:56:58.316Z,5.90
2023-03-14T03:59:24.898Z,4.75
2023-03-14T04:01:51.301Z,4.38
2023-03-14T04:04:18.029Z,7.50
2023-03-14T04:06:45.071Z,4.20
2023-03-14T04:09:12.182Z,7.32
2023-03-14T04:11:38.863Z,4.03
2023-03-14T04:14:07.072Z,6.53
2023-03-14T04:16:33.543Z,4.18
2023-03-14T04:19:00.631Z,7.22
2023-03-14T04:21:27.029Z,7.43
2023-03-14T04:23:53.389Z,4.75
2023-03-14T04:26:19.749Z,8.90
2023-03-14T04:28:46.123Z,2.90
2023-03-14T04:31:19.394Z,9.85
2023-03-14T04:33:46.221Z,8.50
2023-03-14T04:36:13.305Z,5.20
2023-03-14T04:38:40.120Z,3.78
2023-03-14T04:41:07.329Z,6.95
2023-03-14T04:43:34.200Z,5.63
2023-03-14T04:46:00.727Z,6.28
2023-03-14T04:48:27.587Z,4.72
2023-03-14T04:50:54.277Z,4.97
2023-03-14T04:53:21.159Z,5.82
2023-03-14T04:55:52.636Z,4.05
2023-03-14T04:58:20.040Z,8.13
2023-03-14T05:00:46.974Z,3.80
2023-03-14T05:03:16.042Z,4.60
2023-03-14T05:05:42.465Z,7.38
2023-03-14T05:08:08.876Z,4.22
2023-03-14T05:10:35.241Z,3.85
2023-03-14T05:13:01.673Z,4.20
2023-03-14T05:15:28.035Z,3.15
2023-03-14T05:17:55.244Z,5.00
2023-03-14T05:20:22.152Z,8.20
2023-03-14T05:22:48.655Z,5.03
2023-03-14T05:25:15.178Z,4.32
2023-03-14T05:27:41.487Z,4.57
2023-03-14T05:30:10.803Z,6.40
2023-03-14T05:32:37.289Z,3.22
2023-03-14T05:35:04.170Z,5.50
2023-03-14T05:37:30.512Z,2.17
2023-03-14T05:39:56.858Z,3.80
2023-03-14T05:42:23.243Z,3.83
2023-03-14T05:44:49.568Z,5.40
2023-03-14T05:47:16.047Z,3.72
2023-03-14T05:49:42.433Z,3.45
2023-03-14T05:52:08.857Z,4.95
2023-03-14T05:54:35.220Z,4.53
2023-03-14T05:57:01.545Z,2.58
2023-03-14T05:59:27.933Z,4.65
2023-03-14T06:01:54.306Z,3.38
2023-03-14T06:04:20.680Z,3.90
2023-03-14T06:06:47.044Z,5.25
2023-03-14T06:09:13.433Z,4.60
2023-03-14T06:11:39.754Z,3.67
2023-03-14T06:14:06.133Z,3.50
2023-03-14T06:16:33.164Z,6.18
2023-03-14T06:18:59.613Z,2.95
2023-03-14T06:21:26.269Z,2.45
2023-03-14T06:23:52.639Z,3.80
2023-03-14T06:26:19.032Z,2.28
2023-03-14T06:28:45.355Z,2.25
2023-03-14T06:31:11.844Z,5.90
2023-03-14T06:33:38.369Z,2.63
2023-03-14T06:36:05.023Z,3.20
2023-03-14T06:38:31.421Z,2.65
2023-03-14T06:40:57.801Z,4.78
2023-03-14T06:43:24.120Z,3.53
2023-03-14T06:45:50.534Z,3.72
2023-03-14T06:48:16.871Z,7.07
2023-03-14T06:50:43.591Z,3.33
2023-03-14T06:53:09.973Z,6.88
2023-03-14T06:55:36.328Z,3.53
2023-03-14T06:58:02.655Z,4.10
2023-03-14T07:00:29.161Z,5.45
2023-03-14T07:02:55.538Z,5.07
2023-03-14T07:05:21.886Z,3.58
2023-03-14T07:07:48.279Z,7.25
2023-03-14T07:10:14.598Z,4.15
2023-03-14T07:12:40.926Z,3.08
2023-03-14T07:15:18.290Z,4.95
2023-03-14T07:17:45.600Z,4.03
2023-03-14T07:20:12.041Z,5.30
2023-03-14T07:22:38.361Z,3.33
2023-03-14T07:25:05.151Z,3.95
2023-03-14T07:27:31.480Z,4.82
2023-03-14T07:29:57.889Z,7.53
2023-03-14T07:32:24.343Z,2.67
2023-03-14T07:34:50.698Z,4.57
2023-03-14T07:37:17.101Z,5.68
2023-03-14T07:39:43.441Z,3.35
2023-03-14T07:42:09.840Z,6.28
2023-03-14T07:44:36.214Z,3.63
2023-03-14T07:47:02.783Z,2.00
2023-03-14T07:49:29.180Z,2.10
2023-03-14T07:51:55.540Z,5.05
2023-03-14T07:54:21.922Z,1.25
2023-03-14T07:56:48.265Z,3.45
2023-03-14T07:59:14.649Z,2.97
2023-03-14T08:01:40.982Z,2.38
2023-03-14T08:04:07.359Z,3.85
2023-03-14T08:06:33.809Z,3.33
2023-03-14T08:09:00.231Z,4.38
2023-03-14T08:11:26.608Z,1.95
2023-03-14T08:13:53.233Z,4.63
2023-03-14T08:16:20.347Z,5.13
2023-03-14T08:18:46.989Z,3.80
2023-03-14T08:21:13.499Z,6.90
2023-03-14T08:23:39.931Z,5.78
2023-03-14T08:26:06.652Z,5.60
2023-03-14T08:28:34.068Z,6.25
2023-03-14T08:31:01.951Z,5.00
2023-03-14T08:33:29.770Z,5.72
2023-03-14T08:35:57.718Z,3.72
2023-03-14T08:38:24.253Z,3.17
2023-03-14T08:40:59.570Z,2.55
2023-03-14T08:43:27.352Z,4.82
2023-03-14T08:45:53.972Z,3.72
2023-03-14T08:48:20.760Z,2.83
2023-03-14T08:50:47.446Z,4.80
2023-03-14T08:53:13.896Z,2.75
2023-03-14T08:55:40.312Z,3.63
2023-03-14T08:58:06.697Z,6.60
2023-03-14T09:00:33.088Z,4.85
2023-03-14T09:02:59.485Z,3.25
2023-03-14T09:05:25.951Z,3.47
2023-03-14T09:07:52.333Z,3.05
2023-03-14T09:10:18.954Z,1.80
2023-03-14T09:12:45.385Z,2.58
2023-03-14T09:15:11.974Z,4.10
2023-03-14T09:17:38.358Z,5.75
2023-03-14T09:20:07.855Z,4.40
2023-03-14T09:22:36.477Z,3.72
2023-03-14T09:25:04.938Z,4.20
2023-03-14T09:27:31.283Z,4.03
2023-03-14T09:29:57.675Z,1.95
2023-03-14T09:32:24.087Z,2.30
2023-03-14T09:34:50.553Z,3.30
2023-03-14T09:37:17.222Z,2.70
2023-03-14T09:39:43.877Z,3.35
2023-03-14T09:42:14.603Z,5.47
2023-03-14T09:44:50.989Z,4.57
2023-03-14T09:47:17.582Z,2.92
2023-03-14T09:49:43.951Z,3.03
2023-03-14T09:52:19.960Z,3.35
2023-03-14T09:54:58.424Z,2.60
2023-03-14T09:57:26.252Z,4.00
2023-03-14T09:59:55.758Z,7.95
2023-03-14T10:02:25.328Z,3.90
2023-03-14T10:04:54.366Z,4.32
2023-03-14T10:07:29.164Z,2.45
2023-03-14T10:09:56.522Z,6.68
2023-03-14T10:12:36.060Z,3.78
2023-03-14T10:15:14.765Z,4.75
2023-03-14T10:17:44.096Z,5.22
2023-03-14T10:20:33.305Z,3.70
2023-03-14T10:23:01.683Z,3.47
2023-03-14T10:25:30.942Z,4.10
2023-03-14T10:27:57.332Z,5.78
2023-03-14T10:30:45.746Z,3.80
2023-03-14T10:33:19.579Z,2.65
2023-03-14T10:35:46.746Z,4.47
2023-03-14T10:38:15.255Z,3.83
2023-03-14T10:40:49.772Z,2.17
2023-03-14T10:43:20.801Z,3.13
2023-03-14T10:46:00.009Z,4.13
2023-03-14T10:48:35.053Z,4.00
2023-03-14T10:51:08.357Z,2.33
2023-03-14T10:53:40.798Z,2.63
2023-03-14T10:56:07.296Z,4.22
2023-03-14T10:58:38.049Z,2.28
2023-03-14T11:01:07.063Z,2.10
2023-03-14T11:03:34.983Z,4.97
2023-03-14T11:06:08.256Z,2.03
2023-03-14T11:09:06.481Z,2.17
2023-03-14T11:11:33.253Z,3.55
2023-03-14T11:14:13.861Z,3.17
2023-03-14T11:16:49.291Z,2.35
2023-03-14T11:19:34.515Z,3.78
2023-03-14T11:22:23.101Z,2.70
2023-03-14T11:25:05.596Z,4.53
2023-03-14T11:27:44.397Z,3.47
2023-03-14T11:30:19.139Z,3.75
2023-03-14T11:33:05.474Z,2.20
2023-03-14T11:35:38.980Z,3.67
2023-03-14T11:38:32.824Z,2.67
2023-03-14T11:40:59.827Z,2.28
2023-03-14T11:43:32.088Z,2.40
2023-03-14T11:46:32.777Z,4.28
2023-03-14T11:49:12.896Z,4.15
2023-03-14T11:51:40.831Z,2.75
2023-03-14T11:54:28.526Z,3.83
2023-03-14T11:57:03.064Z,3.30
2023-03-14T11:59:32.137Z,2.38
2023-03-14T12:02:13.723Z,1.10
2023-03-14T12:05:14.441Z,0.90
2023-03-14T12:07:49.775Z,0.30
2023-03-14T12:10:16.417Z,0.35
2023-03-14T12:12:43.037Z,0.65
2023-03-14T12:15:21.076Z,2.75
2023-03-14T12:17:47.581Z,0.55
2023-03-14T12:20:20.479Z,0.80
2023-03-14T12:22:54.964Z,0.68
2023-03-14T12:25:23.215Z,0.40
2023-03-14T12:28:04.832Z,0.63
2023-03-14T12:30:39.643Z,0.45
2023-03-14T12:33:18.034Z,0.63
2023-03-14T12:35:58.945Z,0.40
2023-03-14T12:38:33.097Z,0.40
2023-03-14T12:43:40.390Z,0.60
2023-03-14T12:46:18.898Z,0.40
2023-03-14T12:49:05.278Z,0.60
2023-03-14T12:51:39.551Z,1.25
2023-03-14T12:54:28.807Z,0.57
2023-03-14T12:57:28.789Z,0.98
2023-03-14T12:59:59.514Z,0.60
2023-03-14T13:02:30.915Z,0.85
2023-03-14T13:05:16.042Z,1.27
2023-03-14T13:07:48.416Z,1.15
2023-03-14T13:10:48.962Z,1.10
2023-03-14T13:13:23.462Z,0.90
2023-03-14T13:15:57.892Z,1.25
2023-03-14T13:18:35.375Z,0.75
2023-03-14T13:21:13.721Z,0.77
2023-03-14T13:23:40.716Z,10.43
2023-03-14T13:26:12.802Z,1.50
2023-03-14T13:28:39.275Z,2.30
2023-03-14T13:31:07.052Z,0.60
2023-03-14T13:33:35.413Z,0.80
2023-03-14T13:36:04.906Z,0.70
2023-03-14T13:38:33.868Z,1.45
2023-03-14T13:41:01.085Z,0.80
2023-03-14T13:43:33.524Z,1.00
2023-03-14T13:46:17.662Z,0.40
2023-03-14T13:48:49.485Z,0.55
2023-03-14T13:51:18.047Z,1.38
2023-03-14T13:53:46.733Z,0.70
2023-03-14T13:56:14.178Z,4.30
2023-03-14T13:58:41.764Z,0.63
2023-03-14T14:01:16.001Z,0.40
2023-03-14T14:03:44.080Z,0.65
2023-03-14T14:06:26.848Z,0.40
2023-03-14T14:08:53.186Z,0.52
2023-03-14T14:11:44.345Z,3.40
2023-03-14T14:14:16.139Z,0.60
2023-03-14T14:16:44.266Z,0.60
2023-03-14T14:19:11.183Z,0.50
2023-03-14T14:21:37.779Z,0.45
2023-03-14T14:24:06.735Z,0.60
2023-03-14T14:26:33.776Z,0.35
2023-03-14T14:29:05.873Z,0.30
2023-03-14T14:31:32.628Z,0.50
2023-03-14T14:34:00.665Z,0.75
2023-03-14T14:36:40.630Z,0.73
2023-03-14T14:39:11.927Z,0.47
2023-03-14T14:41:42.468Z,0.40
2023-03-14T14:44:12.411Z,0.75
2023-03-14T14:46:38.939Z,2.85
2023-03-14T14:49:10.421Z,0.60
2023-03-14T14:51:43.164Z,1.40
2023-03-14T14:54:15.769Z,1.08
2023-03-14T14:56:47.218Z,1.08
2023-03-14T14:59:23.875Z,1.60
2023-03-14T15:01:51.972Z,1.65
2023-03-14T15:04:18.388Z,1.40
2023-03-14T15:06:47.645Z,2.28
2023-03-14T15:09:14.085Z,1.50
2023-03-14T15:11:40.422Z,1.40
2023-03-14T15:14:07.868Z,0.82
2023-03-14T15:16:34.602Z,1.15
2023-03-14T15:19:17.895Z,0.73
2023-03-14T15:21:49.827Z,1.10
2023-03-14T15:24:16.854Z,0.65
2023-03-14T15:26:45.188Z,0.63
2023-03-14T15:29:13.252Z,0.65
2023-03-14T15:31:41.800Z,0.73
2023-03-14T15:34:09.809Z,0.60
2023-03-14T15:36:37.346Z,0.70
2023-03-14T15:39:05.352Z,0.70
2023-03-14T15:41:32.110Z,1.15
2023-03-14T15:43:58.632Z,0.50
2023-03-14T15:46:25.254Z,0.63
2023-03-14T15:48:52.504Z,0.60
2023-03-14T15:51:19.414Z,2.15
2023-03-14T15:53:46.223Z,0.60
2023-03-14T15:56:18.458Z,1.42
2023-03-14T15:58:47.325Z,1.38
2023-03-14T16:01:17.056Z,1.33
2023-03-14T16:03:47.300Z,1.60
2023-03-14T16:06:14.443Z,0.70
2023-03-14T16:08:41.440Z,0.93
2023-03-14T16:11:07.905Z,0.50
2023-03-14T16:13:34.301Z,1.15
2023-03-14T16:16:02.878Z,1.08
2023-03-14T16:18:34.141Z,2.38
2023-03-14T16:21:02.399Z,1.08
2023-03-14T16:23:29.737Z,0.73
2023-03-14T16:25:57.182Z,1.10
2023-03-14T16:28:23.988Z,2.92
2023-03-14T16:30:50.383Z,0.82
2023-03-14T16:33:17.098Z,1.02
2023-03-14T16:35:54.561Z,0.82
2023-03-14T16:38:20.968Z,1.10
2023-03-14T16:40:56.549Z,0.98
2023-03-14T16:43:22.856Z,0.70
2023-03-14T16:45:50.693Z,0.88
2023-03-14T16:48:17.126Z,0.60
2023-03-14T16:50:43.704Z,0.70
2023-03-14T16:53:11.798Z,0.68
2023-03-14T16:55:47.442Z,0.60
2023-03-14T16:58:13.890Z,0.60
2023-03-14T17:00:40.401Z,0.60
2023-03-14T17:03:06.735Z,1.42
2023-03-14T17:05:33.477Z,0.60
2023-03-14T17:07:59.857Z,0.70
2023-03-14T17:10:26.428Z,0.88
2023-03-14T17:12:52.810Z,1.13
2023-03-14T17:15:19.163Z,1.25
2023-03-14T17:17:45.546Z,1.20
2023-03-14T17:20:12.580Z,2.15
2023-03-14T17:22:39.101Z,1.55
2023-03-14T17:25:05.984Z,0.95
2023-03-14T17:27:32.395Z,0.98
2023-03-14T17:29:58.728Z,0.73
2023-03-14T17:32:26.309Z,1.00
2023-03-14T17:34:54.436Z,1.30
2023-03-14T17:37:20.814Z,1.20
2023-03-14T17:39:47.156Z,1.60
2023-03-14T17:42:13.578Z,3.60
2023-03-14T17:44:39.974Z,3.35
2023-03-14T17:47:06.323Z,2.40
2023-03-14T17:49:32.949Z,2.88
2023-03-14T17:51:59.344Z,2.95
2023-03-14T17:54:25.679Z,3.70
2023-03-14T17:56:52.049Z,3.63
2023-03-14T17:59:20.141Z,5.90
2023-03-14T18:01:46.578Z,2.83
2023-03-14T18:04:14.151Z,9.15
2023-03-14T18:06:44.598Z,3.03
2023-03-14T18:09:11.285Z,2.03
2023-03-14T18:11:37.705Z,3.35
2023-03-14T18:14:07.501Z,2.13
2023-03-14T18:16:34.706Z,1.20
2023-03-14T18:19:01.792Z,6.45
2023-03-14T18:21:31.193Z,2.60
2023-03-14T18:23:57.719Z,8.50
2023-03-14T18:26:27.287Z,4.13
2023-03-14T18:28:54.471Z,6.50
2023-03-14T18:31:23.168Z,6.70
2023-03-14T18:33:49.852Z,9.82
2023-03-14T18:36:16.273Z,3.20
2023-03-14T18:38:43.342Z,2.95
2023-03-14T18:41:11.813Z,4.20
2023-03-14T18:43:38.246Z,2.95
2023-03-14T18:46:04.785Z,2.63
2023-03-14T18:48:31.345Z,6.60
2023-03-14T18:50:58.725Z,5.63
2023-03-14T18:53:32.077Z,3.60
2023-03-14T18:55:59.341Z,5.18
2023-03-14T18:58:28.330Z,3.97
2023-03-14T19:00:59.175Z,5.45
2023-03-14T19:03:26.239Z,5.70
2023-03-14T19:05:53.960Z,6.25
2023-03-14T19:08:23.346Z,5.22
2023-03-14T19:10:50.883Z,8.13
2023-03-14T19:13:17.835Z,5.93
2023-03-14T19:15:44.457Z,8.98
2023-03-14T19:18:11.186Z,10.73
2023-03-14T19:20:38.448Z,9.93
2023-03-14T19:23:04.985Z,7.20
2023-03-14T19:25:31.341Z,9.50
2023-03-14T19:27:58.166Z,9.23
2023-03-14T19:30:25.423Z,11.32
2023-03-14T19:32:52.312Z,12.23
2023-03-14T19:35:19.943Z,8.05
2023-03-14T19:37:47.340Z,10.27
2023-03-14T19:40:14.211Z,6.68
2023-03-14T19:42:40.638Z,8.95
2023-03-14T19:45:08.054Z,10.00
2023-03-14T19:47:34.359Z,8.48
2023-03-14T19:50:00.817Z,6.10
2023-03-14T19:52:27.264Z,6.88
2023-03-14T19:54:54.640Z,9.18
2023-03-14T19:57:21.210Z,8.80
2023-03-14T19:59:47.609Z,8.05
2023-03-14T20:02:15.787Z,7.60
2023-03-14T20:04:47.190Z,6.38
2023-03-14T20:07:14.011Z,6.95
2023-03-14T20:09:41.036Z,10.82
2023-03-14T20:12:10.232Z,8.73
2023-03-14T20:14:36.594Z,8.55
2023-03-14T20:17:03.035Z,7.57
2023-03-14T20:19:29.942Z,12.05
2023-03-14T20:21:57.357Z,7.55
2023-03-14T20:24:24.223Z,8.73
2023-03-14T20:26:51.316Z,8.80
2023-03-14T20:29:17.920Z,8.63
2023-03-14T20:31:44.622Z,7.50
2023-03-14T20:34:11.139Z,8.10
2023-03-14T20:36:38.311Z,11.75
2023-03-14T20:39:05.876Z,9.35
2023-03-14T20:41:32.980Z,12.63
2023-03-14T20:44:00.229Z,8.93
2023-03-14T20:46:27.206Z,8.73
2023-03-14T20:48:54.999Z,11.35
2023-03-14T20:51:21.924Z,10.07
2023-03-14T20:53:48.954Z,6.13
2023-03-14T20:56:15.420Z,10.85
2023-03-14T20:58:43.537Z,9.10
2023-03-14T21:01:12.189Z,5.10
2023-03-14T21:03:40.198Z,6.00
2023-03-14T21:06:11.002Z,11.55
2023-03-14T21:08:39.232Z,9.32
2023-03-14T21:11:05.646Z,7.35
2023-03-14T21:13:33.454Z,6.28
2023-03-14T21:16:01.556Z,10.30
2023-03-14T21:18:28.255Z,10.98
2023-03-14T21:20:55.298Z,12.05
2023-03-14T21:23:26.366Z,12.30
2023-03-14T21:25:59.361Z,4.70
2023-03-14T21:28:26.384Z,10.55
2023-03-14T21:30:53.587Z,10.13
2023-03-14T21:33:20.227Z,10.18
2023-03-14T21:35:46.888Z,9.95
2023-03-14T21:38:13.744Z,7.32
2023-03-14T21:40:41.514Z,11.13
2023-03-14T21:43:07.937Z,8.90
2023-03-14T21:45:36.949Z,11.05
2023-03-14T21:48:03.868Z,8.32
2023-03-14T21:50:30.766Z,11.23
2023-03-14T21:52:59.726Z,7.90
2023-03-14T21:55:26.341Z,11.13
2023-03-14T21:57:54.961Z,7.68
2023-03-14T22:00:21.817Z,7.47
2023-03-14T22:03:03.486Z,9.75
2023-03-14T22:05:36.486Z,6.85
2023-03-14T22:08:03.054Z,5.50
2023-03-14T22:10:29.511Z,6.47
2023-03-14T22:12:59.765Z,11.98
2023-03-14T22:15:26.188Z,7.93
2023-03-14T22:17:54.259Z,9.77
2023-03-14T22:20:20.723Z,7.05
2023-03-14T22:22:50.768Z,12.63
2023-03-14T22:25:21.659Z,7.25
2023-03-14T22:27:48.298Z,12.45
2023-03-14T22:30:15.496Z,12.18
2023-03-14T22:32:45.009Z,11.88
2023-03-14T22:35:11.876Z,13.18
2023-03-14T22:37:41.523Z,12.93
2023-03-14T22:40:09.070Z,11.50
2023-03-14T22:42:36.332Z,11.73
2023-03-14T22:45:03.075Z,10.32
2023-03-14T22:47:29.722Z,8.23
2023-03-14T22:49:56.354Z,14.50
2023-03-14T22:52:32.291Z,14.27
2023-03-14T22:54:59.076Z,10.93
2023-03-14T22:57:25.958Z,10.07
2023-03-14T22:59:52.940Z,10.23
2023-03-14T23:02:19.576Z,9.93
2023-03-14T23:04:52.206Z,7.50
2023-03-14T23:07:18.965Z,11.93
2023-03-14T23:09:45.739Z,9.23
2023-03-14T23:12:17.772Z,12.73
2023-03-14T23:14:44.716Z,9.88
2023-03-14T23:17:11.987Z,6.80
2023-03-14T23:19:40.177Z,11.00
2023-03-14T23:22:09.942Z,13.45
2023-03-14T23:24:37.484Z,10.55
2023-03-14T23:27:04.539Z,9.77
2023-03-14T23:29:31.557Z,9.23
2023-03-14T23:31:58.931Z,10.63
2023-03-14T23:34:26.731Z,10.40
2023-03-14T23:36:54.310Z,8.93
2023-03-14T23:39:21.495Z,9.63
2023-03-14T23:41:51.278Z,10.23
2023-03-14T23:44:23.450Z,10.27
2023-03-14T23:46:53.457Z,8.27
2023-03-14T23:49:23.540Z,9.45
2023-03-14T23:51:50.941Z,10.45
2023-03-14T23:54:22.034Z,9.30
2023-03-14T23:56:49.968Z,9.32
2023-03-14T23:59:17.582Z,12.43
